Time,TemperatureF,DewpointF,PressureIn,WindDirection,WindDirectionDegrees,WindSpeedMPH,WindSpeedGustMPH,Humidity,HourlyPrecipIn,Conditions,Clouds,dailyrainin,SoftwareType,DateUTC
2013-01-23 00:00:00,50.4,24.4,30.16,SE,135,2.0,-999.0,36,0.00,,,0.00,Wunderground v.1.15,2013-01-23 08:00:00,
2013-01-23 00:05:00,50.4,24.4,30.16,SE,135,2.0,-999.0,36,0.00,,,0.00,Wunderground v.1.15,2013-01-23 08:05:00,
2013-01-23 00:10:00,50.4,24.4,30.16,SE,135,2.0,-999.0,36,0.00,,,0.00,Wunderground v.1.15,2013-01-23 08:10:00,
2013-01-23 00:15:00,50.8,23.4,30.16,SE,135,3.0,-999.0,34,0.00,,,0.00,Wunderground v.1.15,2013-01-23 08:15:00,
2013-01-23 00:20:00,50.8,23.4,30.16,SE,135,3.0,-999.0,34,0.00,,,0.00,Wunderground v.1.15,2013-01-23 08:20:00,
2013-01-23 00:25:00,51.2,22.3,30.17,SE,135,2.0,-999.0,32,0.00,,,0.00,Wunderground v.1.15,2013-01-23 08:25:00,
2013-01-23 00:30:00,51.2,22.3,30.17,SE,135,2.0,-999.0,32,0.00,,,0.00,Wunderground v.1.15,2013-01-23 08:30:00,
2013-01-23 00:35:00,51.6,22.7,30.16,SE,135,2.0,-999.0,32,0.00,,,0.00,Wunderground v.1.15,2013-01-23 08:35:00,
2013-01-23 00:40:00,51.6,22.7,30.16,SE,135,2.0,-999.0,32,0.00,,,0.00,Wunderground v.1.15,2013-01-23 08:40:00,
2013-01-23 00:45:00,51.7,22.0,30.16,SE,135,3.0,-999.0,31,0.00,,,0.00,Wunderground v.1.15,2013-01-23 08:45:00,
2013-01-23 00:50:00,51.7,22.0,30.16,SE,135,3.0,-999.0,31,0.00,,,0.00,Wunderground v.1.15,2013-01-23 08:50:00,
2013-01-23 00:55:00,51.4,21.7,30.16,SE,135,2.0,-999.0,31,0.00,,,0.00,Wunderground v.1.15,2013-01-23 08:55:00,
2013-01-23 01:00:00,51.4,21.7,30.16,SE,135,2.0,-999.0,31,0.00,,,0.00,Wunderground v.1.15,2013-01-23 09:00:00,
2013-01-23 01:05:00,51.7,19.6,30.15,SE,135,3.0,-999.0,28,0.00,,,0.00,Wunderground v.1.15,2013-01-23 09:05:00,
2013-01-23 01:10:00,51.7,19.6,30.15,SE,135,3.0,-999.0,28,0.00,,,0.00,Wunderground v.1.15,2013-01-23 09:10:00,
2013-01-23 01:15:00,52.6,19.5,30.15,SE,135,3.0,-999.0,27,0.00,,,0.00,Wunderground v.1.15,2013-01-23 09:15:00,
2013-01-23 01:20:00,52.6,19.5,30.15,SE,135,3.0,-999.0,27,0.00,,,0.00,Wunderground v.1.15,2013-01-23 09:20:00,
2013-01-23 01:25:00,53.0,21.6,30.15,SSE,158,3.0,-999.0,29,0.00,,,0.00,Wunderground v.1.15,2013-01-23 09:25:00,
2013-01-23 01:30:00,53.0,21.6,30.15,SSE,158,3.0,-999.0,29,0.00,,,0.00,Wunderground v.1.15,2013-01-23 09:30:00,
2013-01-23 01:35:00,52.7,20.5,30.15,SE,135,3.0,-999.0,28,0.00,,,0.00,Wunderground v.1.15,2013-01-23 09:35:00,
2013-01-23 01:40:00,52.7,20.5,30.15,SE,135,3.0,-999.0,28,0.00,,,0.00,Wunderground v.1.15,2013-01-23 09:40:00,
2013-01-23 01:45:00,52.5,21.1,30.15,SE,135,3.0,-999.0,29,0.00,,,0.00,Wunderground v.1.15,2013-01-23 09:45:00,
2013-01-23 01:50:00,52.5,21.1,30.15,SE,135,3.0,-999.0,29,0.00,,,0.00,Wunderground v.1.15,2013-01-23 09:50:00,
2013-01-23 01:55:00,52.6,20.4,30.15,SE,135,3.0,-999.0,28,0.00,,,0.00,Wunderground v.1.15,2013-01-23 09:55:00,
2013-01-23 02:00:00,52.6,20.4,30.15,SE,135,3.0,-999.0,28,0.00,,,0.00,Wunderground v.1.15,2013-01-23 10:00:00,
2013-01-23 02:05:00,53.1,19.1,30.15,SE,135,3.0,-999.0,26,0.00,,,0.00,Wunderground v.1.15,2013-01-23 10:05:00,
2013-01-23 02:10:00,53.1,19.1,30.15,SE,135,3.0,-999.0,26,0.00,,,0.00,Wunderground v.1.15,2013-01-23 10:10:00,
2013-01-23 02:15:00,53.0,19.0,30.15,SE,135,3.0,-999.0,26,0.00,,,0.00,Wunderground v.1.15,2013-01-23 10:15:00,
2013-01-23 02:20:00,53.0,19.0,30.15,SE,135,3.0,-999.0,26,0.00,,,0.00,Wunderground v.1.15,2013-01-23 10:20:00,
2013-01-23 02:25:00,52.9,18.9,30.15,SE,135,3.0,-999.0,26,0.00,,,0.00,Wunderground v.1.15,2013-01-23 10:25:00,
2013-01-23 02:30:00,52.9,18.9,30.15,SE,135,3.0,-999.0,26,0.00,,,0.00,Wunderground v.1.15,2013-01-23 10:30:00,
2013-01-23 02:35:00,52.8,18.8,30.15,ESE,113,2.0,-999.0,26,0.00,,,0.00,Wunderground v.1.15,2013-01-23 10:35:00,
2013-01-23 02:40:00,52.8,18.8,30.15,ESE,113,2.0,-999.0,26,0.00,,,0.00,Wunderground v.1.15,2013-01-23 10:40:00,
2013-01-23 02:45:00,52.9,17.0,30.15,SE,135,3.0,-999.0,24,0.00,,,0.00,Wunderground v.1.15,2013-01-23 10:45:00,
2013-01-23 02:50:00,52.9,17.0,30.15,SE,135,3.0,-999.0,24,0.00,,,0.00,Wunderground v.1.15,2013-01-23 10:50:00,
2013-01-23 02:55:00,53.2,18.2,30.15,SE,135,2.0,-999.0,25,0.00,,,0.00,Wunderground v.1.15,2013-01-23 10:55:00,
2013-01-23 03:00:00,53.2,18.2,30.15,SE,135,2.0,-999.0,25,0.00,,,0.00,Wunderground v.1.15,2013-01-23 11:00:00,
2013-01-23 03:05:00,53.2,17.3,30.15,SE,135,3.0,-999.0,24,0.00,,,0.00,Wunderground v.1.15,2013-01-23 11:05:00,
2013-01-23 03:10:00,53.2,17.3,30.15,SE,135,3.0,-999.0,24,0.00,,,0.00,Wunderground v.1.15,2013-01-23 11:10:00,
2013-01-23 03:15:00,53.0,16.1,30.14,SE,135,2.0,-999.0,23,0.00,,,0.00,Wunderground v.1.15,2013-01-23 11:15:00,
2013-01-23 03:20:00,53.0,16.1,30.14,SE,135,2.0,-999.0,23,0.00,,,0.00,Wunderground v.1.15,2013-01-23 11:20:00,
2013-01-23 03:25:00,53.3,18.3,30.14,SE,135,2.0,-999.0,25,0.00,,,0.00,Wunderground v.1.15,2013-01-23 11:25:00,
2013-01-23 03:30:00,53.3,18.3,30.14,SE,135,2.0,-999.0,25,0.00,,,0.00,Wunderground v.1.15,2013-01-23 11:30:00,
2013-01-23 03:35:00,53.4,16.5,30.13,SE,135,3.0,-999.0,23,0.00,,,0.00,Wunderground v.1.15,2013-01-23 11:35:00,
2013-01-23 03:40:00,53.4,16.5,30.13,SE,135,3.0,-999.0,23,0.00,,,0.00,Wunderground v.1.15,2013-01-23 11:40:00,
2013-01-23 03:45:00,53.6,17.6,30.13,SE,135,2.0,-999.0,24,0.00,,,0.00,Wunderground v.1.15,2013-01-23 11:45:00,
2013-01-23 03:50:00,53.6,17.6,30.13,SE,135,2.0,-999.0,24,0.00,,,0.00,Wunderground v.1.15,2013-01-23 11:50:00,
2013-01-23 03:55:00,53.8,16.8,30.12,SE,135,2.0,-999.0,23,0.00,,,0.00,Wunderground v.1.15,2013-01-23 11:55:00,
2013-01-23 04:00:00,53.8,16.8,30.12,SE,135,2.0,-999.0,23,0.00,,,0.00,Wunderground v.1.15,2013-01-23 12:00:00,
2013-01-23 04:05:00,53.8,15.8,30.12,SE,135,2.0,-999.0,22,0.00,,,0.00,Wunderground v.1.15,2013-01-23 12:05:00,
2013-01-23 04:10:00,53.8,15.8,30.12,SE,135,2.0,-999.0,22,0.00,,,0.00,Wunderground v.1.15,2013-01-23 12:10:00,
2013-01-23 04:15:00,54.0,14.9,30.11,ESE,113,3.0,-999.0,21,0.00,,,0.00,Wunderground v.1.15,2013-01-23 12:15:00,
2013-01-23 04:20:00,54.0,14.9,30.11,ESE,113,3.0,-999.0,21,0.00,,,0.00,Wunderground v.1.15,2013-01-23 12:20:00,
2013-01-23 04:25:00,54.2,16.1,30.10,SE,135,3.0,-999.0,22,0.00,,,0.00,Wunderground v.1.15,2013-01-23 12:25:00,
2013-01-23 04:30:00,54.2,16.1,30.10,SE,135,3.0,-999.0,22,0.00,,,0.00,Wunderground v.1.15,2013-01-23 12:30:00,
2013-01-23 04:35:00,53.7,17.7,30.10,SE,135,3.0,-999.0,24,0.00,,,0.00,Wunderground v.1.15,2013-01-23 12:35:00,
2013-01-23 04:40:00,53.7,17.7,30.10,SE,135,3.0,-999.0,24,0.00,,,0.00,Wunderground v.1.15,2013-01-23 12:40:00,
2013-01-23 04:45:00,52.7,18.7,30.10,SE,135,3.0,-999.0,26,0.00,,,0.00,Wunderground v.1.15,2013-01-23 12:45:00,
2013-01-23 04:50:00,52.7,18.7,30.10,SE,135,3.0,-999.0,26,0.00,,,0.00,Wunderground v.1.15,2013-01-23 12:50:00,
2013-01-23 04:55:00,52.2,17.4,30.10,SE,135,3.0,-999.0,25,0.00,,,0.00,Wunderground v.1.15,2013-01-23 12:55:00,
2013-01-23 05:00:00,52.2,17.4,30.10,SE,135,3.0,-999.0,25,0.00,,,0.00,Wunderground v.1.15,2013-01-23 13:00:00,
2013-01-23 05:05:00,52.5,22.7,30.11,SE,135,1.0,-999.0,31,0.00,,,0.00,Wunderground v.1.15,2013-01-23 13:05:00,
2013-01-23 05:10:00,52.5,22.7,30.11,SE,135,1.0,-999.0,31,0.00,,,0.00,Wunderground v.1.15,2013-01-23 13:10:00,
2013-01-23 05:15:00,50.9,22.8,30.10,SE,135,1.0,-999.0,33,0.00,,,0.00,Wunderground v.1.15,2013-01-23 13:15:00,
2013-01-23 05:20:00,50.9,22.8,30.10,SE,135,1.0,-999.0,33,0.00,,,0.00,Wunderground v.1.15,2013-01-23 13:20:00,
2013-01-23 05:25:00,49.4,16.8,30.10,ESE,113,1.0,-999.0,27,0.00,,,0.00,Wunderground v.1.15,2013-01-23 13:25:00,
2013-01-23 05:30:00,49.4,16.8,30.10,ESE,113,1.0,-999.0,27,0.00,,,0.00,Wunderground v.1.15,2013-01-23 13:30:00,
2013-01-23 05:35:00,51.8,17.0,30.10,SE,135,2.0,-999.0,25,0.00,,,0.00,Wunderground v.1.15,2013-01-23 13:35:00,
2013-01-23 05:40:00,51.8,17.0,30.10,SE,135,2.0,-999.0,25,0.00,,,0.00,Wunderground v.1.15,2013-01-23 13:40:00,
2013-01-23 05:45:00,52.8,16.9,30.11,SE,135,2.0,-999.0,24,0.00,,,0.00,Wunderground v.1.15,2013-01-23 13:45:00,
2013-01-23 05:50:00,52.8,16.9,30.11,SE,135,2.0,-999.0,24,0.00,,,0.00,Wunderground v.1.15,2013-01-23 13:50:00,
2013-01-23 05:55:00,53.4,17.5,30.11,SE,135,3.0,-999.0,24,0.00,,,0.00,Wunderground v.1.15,2013-01-23 13:55:00,
2013-01-23 06:00:00,53.4,17.5,30.11,SE,135,3.0,-999.0,24,0.00,,,0.00,Wunderground v.1.15,2013-01-23 14:00:00,
2013-01-23 06:05:00,53.1,18.2,30.11,SE,135,2.0,-999.0,25,0.00,,,0.00,Wunderground v.1.15,2013-01-23 14:05:00,
2013-01-23 06:10:00,53.1,18.2,30.11,SE,135,2.0,-999.0,25,0.00,,,0.00,Wunderground v.1.15,2013-01-23 14:10:00,
2013-01-23 06:15:00,53.1,17.2,30.10,SE,135,3.0,-999.0,24,0.00,,,0.00,Wunderground v.1.15,2013-01-23 14:15:00,
2013-01-23 06:20:00,53.1,17.2,30.10,SE,135,3.0,-999.0,24,0.00,,,0.00,Wunderground v.1.15,2013-01-23 14:20:00,
2013-01-23 06:25:00,53.2,16.3,30.09,SE,135,3.0,-999.0,23,0.00,,,0.00,Wunderground v.1.15,2013-01-23 14:25:00,
2013-01-23 06:30:00,53.2,16.3,30.09,SE,135,3.0,-999.0,23,0.00,,,0.00,Wunderground v.1.15,2013-01-23 14:30:00,
2013-01-23 06:35:00,53.3,17.4,30.09,SE,135,4.0,-999.0,24,0.00,,,0.00,Wunderground v.1.15,2013-01-23 14:35:00,
2013-01-23 06:40:00,53.3,17.4,30.09,SE,135,4.0,-999.0,24,0.00,,,0.00,Wunderground v.1.15,2013-01-23 14:40:00,
2013-01-23 06:45:00,53.0,19.0,30.10,SE,135,3.0,-999.0,26,0.00,,,0.00,Wunderground v.1.15,2013-01-23 14:45:00,
2013-01-23 06:50:00,53.0,19.0,30.10,SE,135,3.0,-999.0,26,0.00,,,0.00,Wunderground v.1.15,2013-01-23 14:50:00,
2013-01-23 06:55:00,52.0,20.7,30.09,SE,135,3.0,-999.0,29,0.00,,,0.00,Wunderground v.1.15,2013-01-23 14:55:00,
2013-01-23 07:00:00,52.0,20.7,30.09,SE,135,3.0,-999.0,29,0.00,,,0.00,Wunderground v.1.15,2013-01-23 15:00:00,
2013-01-23 07:05:00,51.4,20.2,30.09,SE,135,3.0,-999.0,29,0.00,,,0.00,Wunderground v.1.15,2013-01-23 15:05:00,
2013-01-23 07:10:00,51.4,20.2,30.09,SE,135,3.0,-999.0,29,0.00,,,0.00,Wunderground v.1.15,2013-01-23 15:10:00,
2013-01-23 07:15:00,51.3,19.3,30.10,SE,135,3.0,-999.0,28,0.00,,,0.00,Wunderground v.1.15,2013-01-23 15:15:00,
2013-01-23 07:20:00,51.3,19.3,30.10,SE,135,3.0,-999.0,28,0.00,,,0.00,Wunderground v.1.15,2013-01-23 15:20:00,
2013-01-23 07:25:00,51.3,20.1,30.10,ESE,113,2.0,-999.0,29,0.00,,,0.00,Wunderground v.1.15,2013-01-23 15:25:00,
2013-01-23 07:30:00,51.3,20.1,30.10,ESE,113,2.0,-999.0,29,0.00,,,0.00,Wunderground v.1.15,2013-01-23 15:30:00,
2013-01-23 07:35:00,51.6,18.7,30.11,SE,135,2.0,-999.0,27,0.00,,,0.00,Wunderground v.1.15,2013-01-23 15:35:00,
2013-01-23 07:40:00,51.6,18.7,30.11,SE,135,2.0,-999.0,27,0.00,,,0.00,Wunderground v.1.15,2013-01-23 15:40:00,
2013-01-23 07:45:00,51.8,20.5,30.12,SE,135,1.0,-999.0,29,0.00,,,0.00,Wunderground v.1.15,2013-01-23 15:45:00,
2013-01-23 07:55:00,51.8,20.5,30.12,SE,135,1.0,-999.0,29,0.00,,,0.00,Wunderground v.1.15,2013-01-23 15:55:00,
2013-01-23 08:00:00,51.1,23.7,30.12,NE,45,1.0,-999.0,34,0.00,,,0.00,Wunderground v.1.15,2013-01-23 16:00:00,
2013-01-23 08:05:00,49.6,20.9,30.12,NE,36,1.0,1.0,32,0.00,,,0.00,Wunderground v.1.15,2013-01-23 16:05:00,
2013-01-23 08:10:00,49.8,18.0,30.11,NE,45,0.0,-999.0,28,0.00,,,0.00,Wunderground v.1.15,2013-01-23 16:10:00,
2013-01-23 08:15:00,51.2,17.4,30.11,ESE,108,1.0,1.0,26,0.00,,,0.00,Wunderground v.1.15,2013-01-23 16:15:00,
2013-01-23 08:20:00,51.7,18.7,30.12,ESE,113,2.0,-999.0,27,0.00,,,0.00,Wunderground v.1.15,2013-01-23 16:20:00,
2013-01-23 08:25:00,53.0,19.0,30.12,SE,138,2.0,2.0,26,0.00,,,0.00,Wunderground v.1.15,2013-01-23 16:25:00,
2013-01-23 08:30:00,53.2,20.9,30.12,ESE,123,2.0,2.0,28,0.00,,,0.00,Wunderground v.1.15,2013-01-23 16:30:00,
2013-01-23 08:35:00,53.3,19.2,30.12,SE,136,2.0,2.0,26,0.00,,,0.00,Wunderground v.1.15,2013-01-23 16:35:00,
2013-01-23 08:40:00,53.4,21.9,30.12,SSE,160,2.0,2.0,29,0.00,,,0.00,Wunderground v.1.15,2013-01-23 16:40:00,
2013-01-23 08:45:00,53.2,22.5,30.12,SE,135,3.0,-999.0,30,0.00,,,0.00,Wunderground v.1.15,2013-01-23 16:45:00,
2013-01-23 08:50:00,53.2,22.5,30.12,SE,135,3.0,-999.0,30,0.00,,,0.00,Wunderground v.1.15,2013-01-23 16:50:00,
2013-01-23 08:55:00,53.6,22.9,30.12,SE,135,3.0,-999.0,30,0.00,,,0.00,Wunderground v.1.15,2013-01-23 16:55:00,
2013-01-23 09:00:00,53.6,22.9,30.12,SE,135,3.0,-999.0,30,0.00,,,0.00,Wunderground v.1.15,2013-01-23 17:00:00,
2013-01-23 09:05:00,53.0,24.6,30.13,SE,135,4.0,-999.0,33,0.00,,,0.00,Wunderground v.1.15,2013-01-23 17:05:00,
2013-01-23 09:10:00,53.0,24.6,30.13,SE,135,4.0,-999.0,33,0.00,,,0.00,Wunderground v.1.15,2013-01-23 17:10:00,
2013-01-23 09:15:00,52.5,23.5,30.13,SE,135,4.0,-999.0,32,0.00,,,0.00,Wunderground v.1.15,2013-01-23 17:15:00,
2013-01-23 09:20:00,52.5,23.5,30.13,SE,135,4.0,-999.0,32,0.00,,,0.00,Wunderground v.1.15,2013-01-23 17:20:00,
2013-01-23 09:25:00,52.8,21.4,30.13,SE,135,4.0,-999.0,29,0.00,,,0.00,Wunderground v.1.15,2013-01-23 17:25:00,
2013-01-23 09:30:00,52.8,21.4,30.13,SE,135,4.0,-999.0,29,0.00,,,0.00,Wunderground v.1.15,2013-01-23 17:30:00,
2013-01-23 09:35:00,53.2,24.1,30.13,SE,135,4.0,-999.0,32,0.00,,,0.00,Wunderground v.1.15,2013-01-23 17:35:00,
2013-01-23 09:40:00,53.2,24.1,30.13,SE,135,4.0,-999.0,32,0.00,,,0.00,Wunderground v.1.15,2013-01-23 17:40:00,
2013-01-23 09:45:00,53.6,25.2,30.13,SE,135,4.0,-999.0,33,0.00,,,0.00,Wunderground v.1.15,2013-01-23 17:45:00,
2013-01-23 09:50:00,53.6,25.2,30.13,SE,135,4.0,-999.0,33,0.00,,,0.00,Wunderground v.1.15,2013-01-23 17:50:00,
2013-01-23 09:55:00,54.4,23.6,30.12,SE,135,4.0,-999.0,30,0.00,,,0.00,Wunderground v.1.15,2013-01-23 17:55:00,
2013-01-23 10:00:00,54.4,23.6,30.12,SE,135,4.0,-999.0,30,0.00,,,0.00,Wunderground v.1.15,2013-01-23 18:00:00,
2013-01-23 10:05:00,55.5,22.0,30.14,SE,135,3.0,-999.0,27,0.00,,,0.00,Wunderground v.1.15,2013-01-23 18:05:00,
2013-01-23 10:10:00,55.5,22.0,30.14,SE,135,3.0,-999.0,27,0.00,,,0.00,Wunderground v.1.15,2013-01-23 18:10:00,
2013-01-23 10:15:00,56.3,26.0,30.14,SE,135,3.0,-999.0,31,0.00,,,0.00,Wunderground v.1.15,2013-01-23 18:15:00,
2013-01-23 10:20:00,56.3,26.0,30.14,SE,135,3.0,-999.0,31,0.00,,,0.00,Wunderground v.1.15,2013-01-23 18:20:00,
2013-01-23 10:25:00,56.7,27.1,30.15,SE,135,3.0,-999.0,32,0.00,,,0.00,Wunderground v.1.15,2013-01-23 18:25:00,
2013-01-23 10:30:00,56.7,27.1,30.15,SE,135,3.0,-999.0,32,0.00,,,0.00,Wunderground v.1.15,2013-01-23 18:30:00,
2013-01-23 10:35:00,57.1,29.0,30.15,SE,135,2.0,-999.0,34,0.00,,,0.00,Wunderground v.1.15,2013-01-23 18:35:00,
2013-01-23 10:40:00,57.1,29.0,30.15,SE,135,2.0,-999.0,34,0.00,,,0.00,Wunderground v.1.15,2013-01-23 18:40:00,
2013-01-23 10:45:00,57.3,28.4,30.16,SE,135,2.0,-999.0,33,0.00,,,0.00,Wunderground v.1.15,2013-01-23 18:45:00,
2013-01-23 10:50:00,57.3,28.4,30.16,SE,135,2.0,-999.0,33,0.00,,,0.00,Wunderground v.1.15,2013-01-23 18:50:00,
2013-01-23 10:55:00,57.4,27.7,30.16,SE,135,1.0,-999.0,32,0.00,,,0.00,Wunderground v.1.15,2013-01-23 18:55:00,
2013-01-23 11:00:00,57.4,27.7,30.16,SE,135,1.0,-999.0,32,0.00,,,0.00,Wunderground v.1.15,2013-01-23 19:00:00,
2013-01-23 11:05:00,57.8,28.1,30.16,SE,135,2.0,-999.0,32,0.00,,,0.00,Wunderground v.1.15,2013-01-23 19:05:00,
2013-01-23 11:10:00,57.8,28.1,30.16,SE,135,2.0,-999.0,32,0.00,,,0.00,Wunderground v.1.15,2013-01-23 19:10:00,
2013-01-23 11:15:00,59.0,31.4,30.16,SSE,158,2.0,-999.0,35,0.00,,,0.00,Wunderground v.1.15,2013-01-23 19:15:00,
2013-01-23 11:20:00,59.0,31.4,30.16,SSE,158,2.0,-999.0,35,0.00,,,0.00,Wunderground v.1.15,2013-01-23 19:20:00,
2013-01-23 11:25:00,59.1,30.0,30.16,SSE,158,1.0,-999.0,33,0.00,,,0.00,Wunderground v.1.15,2013-01-23 19:25:00,
2013-01-23 11:30:00,59.1,30.0,30.16,SSE,158,1.0,-999.0,33,0.00,,,0.00,Wunderground v.1.15,2013-01-23 19:30:00,
2013-01-23 11:35:00,59.0,29.2,30.15,SE,135,2.0,-999.0,32,0.00,,,0.00,Wunderground v.1.15,2013-01-23 19:35:00,
2013-01-23 11:40:00,59.0,29.2,30.15,SE,135,2.0,-999.0,32,0.00,,,0.00,Wunderground v.1.15,2013-01-23 19:40:00,
2013-01-23 11:45:00,59.1,30.7,30.15,SSE,158,2.0,-999.0,34,0.00,,,0.00,Wunderground v.1.15,2013-01-23 19:45:00,
2013-01-23 11:50:00,59.1,30.7,30.15,SSE,158,2.0,-999.0,34,0.00,,,0.00,Wunderground v.1.15,2013-01-23 19:50:00,
2013-01-23 11:55:00,58.9,26.7,30.15,SE,135,2.0,-999.0,29,0.00,,,0.00,Wunderground v.1.15,2013-01-23 19:55:00,
2013-01-23 12:00:00,58.9,26.7,30.15,SE,135,2.0,-999.0,29,0.00,,,0.00,Wunderground v.1.15,2013-01-23 20:00:00,
2013-01-23 12:05:00,58.7,29.6,30.15,SE,135,2.0,-999.0,33,0.00,,,0.00,Wunderground v.1.15,2013-01-23 20:05:00,
2013-01-23 12:10:00,58.7,29.6,30.15,SE,135,2.0,-999.0,33,0.00,,,0.00,Wunderground v.1.15,2013-01-23 20:10:00,
2013-01-23 12:15:00,58.5,27.1,30.15,SSE,158,2.0,-999.0,30,0.00,,,0.00,Wunderground v.1.15,2013-01-23 20:15:00,
2013-01-23 12:28:00,58.5,27.1,30.15,SSE,158,2.0,-999.0,30,0.00,,,0.00,Wunderground v.1.15,2013-01-23 20:28:00,
2013-01-23 12:35:00,58.9,29.8,30.14,ESE,122,3.0,3.0,33,0.00,,,0.00,Wunderground v.1.15,2013-01-23 20:35:00,
2013-01-23 12:40:00,59.0,29.2,30.15,SE,139,3.0,3.0,32,0.00,,,0.00,Wunderground v.1.15,2013-01-23 20:40:00,
2013-01-23 12:45:00,59.2,26.9,30.14,SE,132,2.0,3.0,29,0.00,,,0.00,Wunderground v.1.15,2013-01-23 20:45:00,
2013-01-23 12:55:00,59.7,28.2,30.14,ESE,107,2.0,4.0,30,0.00,,,0.00,Wunderground v.1.15,2013-01-23 20:55:00,
2013-01-23 13:00:00,60.2,28.6,30.14,East,98,2.0,3.0,30,0.00,,,0.00,Wunderground v.1.15,2013-01-23 21:00:00,
2013-01-23 13:10:00,60.5,26.3,30.14,SE,138,2.0,2.0,27,0.00,,,0.00,Wunderground v.1.15,2013-01-23 21:10:00,
2013-01-23 13:15:00,60.3,24.3,30.14,South,180,2.0,3.0,25,0.00,,,0.00,Wunderground v.1.15,2013-01-23 21:15:00,
2013-01-23 13:20:00,60.3,27.0,30.13,SSE,153,3.0,3.0,28,0.00,,,0.00,Wunderground v.1.15,2013-01-23 21:20:00,
2013-01-23 13:25:00,60.4,28.8,30.14,South,175,3.0,4.0,30,0.00,,,0.00,Wunderground v.1.15,2013-01-23 21:25:00,
2013-01-23 13:30:00,60.3,24.3,30.13,SSE,167,3.0,3.0,25,0.00,,,0.00,Wunderground v.1.15,2013-01-23 21:30:00,
2013-01-23 13:40:00,60.3,26.1,30.13,SSE,158,2.0,2.0,27,0.00,,,0.00,Wunderground v.1.15,2013-01-23 21:40:00,
2013-01-23 13:45:00,60.1,25.1,30.13,South,190,2.0,2.0,26,0.00,,,0.00,Wunderground v.1.15,2013-01-23 21:45:00,
2013-01-23 13:50:00,60.2,25.1,30.13,SSE,159,2.0,2.0,26,0.00,,,0.00,Wunderground v.1.15,2013-01-23 21:50:00,
2013-01-23 14:00:00,60.3,26.1,30.13,SE,143,2.0,2.0,27,0.00,,,0.00,Wunderground v.1.15,2013-01-23 22:00:00,
2013-01-23 14:10:00,60.1,25.1,30.13,South,178,2.0,2.0,26,0.00,,,0.00,Wunderground v.1.15,2013-01-23 22:10:00,
2013-01-23 14:15:00,60.1,25.1,30.13,SSE,160,2.0,2.0,26,0.00,,,0.00,Wunderground v.1.15,2013-01-23 22:15:00,
2013-01-23 14:25:00,59.9,24.9,30.13,South,178,2.0,2.0,26,0.00,,,0.00,Wunderground v.1.15,2013-01-23 22:25:00,
2013-01-23 14:35:00,59.4,24.5,30.12,SW,228,2.0,3.0,26,0.00,,,0.00,Wunderground v.1.15,2013-01-23 22:35:00,
2013-01-23 14:40:00,59.3,25.3,30.13,SW,218,2.0,2.0,27,0.00,,,0.00,Wunderground v.1.15,2013-01-23 22:40:00,
2013-01-23 14:45:00,59.1,25.1,30.13,SSE,168,2.0,2.0,27,0.00,,,0.00,Wunderground v.1.15,2013-01-23 22:45:00,
2013-01-23 14:50:00,59.0,25.0,30.13,South,172,1.0,1.0,27,0.00,,,0.00,Wunderground v.1.15,2013-01-23 22:50:00,
2013-01-23 14:55:00,58.8,26.6,30.14,SSE,154,1.0,1.0,29,0.00,,,0.00,Wunderground v.1.15,2013-01-23 22:55:00,
2013-01-23 15:00:00,58.5,25.5,30.14,SSE,150,1.0,1.0,28,0.00,,,0.00,Wunderground v.1.15,2013-01-23 23:00:00,
2013-01-23 15:10:00,58.0,25.9,30.14,South,169,1.0,1.0,29,0.00,,,0.00,Wunderground v.1.15,2013-01-23 23:10:00,
2013-01-23 15:15:00,57.8,25.7,30.14,ESE,119,2.0,2.0,29,0.00,,,0.00,Wunderground v.1.15,2013-01-23 23:15:00,
2013-01-23 15:25:00,57.1,23.4,30.15,SE,131,2.0,2.0,27,0.00,,,0.00,Wunderground v.1.15,2013-01-23 23:25:00,
2013-01-23 15:35:00,56.5,23.7,30.15,South,169,2.0,2.0,28,0.00,,,0.00,Wunderground v.1.15,2013-01-23 23:35:00,
2013-01-23 15:45:00,56.0,26.5,30.15,East,94,1.0,2.0,32,0.00,,,0.00,Wunderground v.1.15,2013-01-23 23:45:00,
2013-01-23 15:50:00,55.6,26.9,30.16,SSE,155,1.0,2.0,33,0.00,,,0.00,Wunderground v.1.15,2013-01-23 23:50:00,
2013-01-23 15:55:00,55.3,27.4,30.16,ESE,117,1.0,2.0,34,0.00,,,0.00,Wunderground v.1.15,2013-01-23 23:55:00,
2013-01-23 16:00:00,54.9,27.7,30.16,ESE,118,1.0,2.0,35,0.00,,,0.00,Wunderground v.1.15,2013-01-24 00:00:00,
2013-01-23 16:10:00,54.3,29.2,30.17,ESE,119,1.0,1.0,38,0.00,,,0.00,Wunderground v.1.15,2013-01-24 00:10:00,
2013-01-23 16:15:00,53.9,29.5,30.17,ESE,119,0.0,1.0,39,0.00,,,0.00,Wunderground v.1.15,2013-01-24 00:15:00,
2013-01-23 16:25:00,53.2,30.1,30.17,ESE,119,0.0,0.0,41,0.00,,,0.00,Wunderground v.1.15,2013-01-24 00:25:00,
2013-01-23 16:35:00,52.3,32.1,30.18,ESE,119,0.0,0.0,46,0.00,,,0.00,Wunderground v.1.15,2013-01-24 00:35:00,
2013-01-23 16:45:00,50.9,34.8,30.18,ESE,119,0.0,0.0,54,0.00,,,0.00,Wunderground v.1.15,2013-01-24 00:45:00,
2013-01-23 16:50:00,50.2,35.5,30.19,ESE,119,0.0,0.0,57,0.00,,,0.00,Wunderground v.1.15,2013-01-24 00:50:00,
2013-01-23 16:55:00,49.1,37.8,30.19,ESE,119,0.0,0.0,65,0.00,,,0.00,Wunderground v.1.15,2013-01-24 00:55:00,
2013-01-23 17:00:00,48.0,37.9,30.19,SE,139,0.0,1.0,68,0.00,,,0.01,Wunderground v.1.15,2013-01-24 01:00:00,
2013-01-23 17:10:00,46.8,40.3,30.19,East,80,1.0,1.0,78,0.05,,,0.02,Wunderground v.1.15,2013-01-24 01:10:00,
2013-01-23 17:20:00,45.8,40.6,30.19,East,80,1.0,1.0,82,0.05,,,0.02,Wunderground v.1.15,2013-01-24 01:20:00,
2013-01-23 17:30:00,45.3,39.5,30.18,East,80,1.0,1.0,80,0.04,,,0.03,Wunderground v.1.15,2013-01-24 01:30:00,
2013-01-23 17:35:00,45.2,40.3,30.18,East,80,1.0,1.0,83,0.04,,,0.03,Wunderground v.1.15,2013-01-24 01:35:00,
2013-01-23 17:45:00,46.0,41.7,30.18,East,79,1.0,1.0,85,0.00,,,0.03,Wunderground v.1.15,2013-01-24 01:45:00,
2013-01-23 17:55:00,46.7,42.1,30.18,ENE,68,1.0,2.0,84,0.00,,,0.03,Wunderground v.1.15,2013-01-24 01:55:00,
2013-01-23 18:00:00,46.6,41.7,30.18,NE,36,1.0,2.0,83,0.00,,,0.03,Wunderground v.1.15,2013-01-24 02:00:00,
2013-01-23 18:10:00,46.4,41.2,30.18,NNW,346,1.0,3.0,82,0.00,,,0.03,Wunderground v.1.15,2013-01-24 02:10:00,
2013-01-23 18:20:00,46.3,41.1,30.19,NNW,345,2.0,2.0,82,0.00,,,0.03,Wunderground v.1.15,2013-01-24 02:20:00,
2013-01-23 18:25:00,46.4,41.2,30.19,NNW,346,1.0,2.0,82,0.00,,,0.03,Wunderground v.1.15,2013-01-24 02:25:00,
2013-01-23 18:35:00,46.8,41.9,30.19,NE,34,1.0,1.0,83,0.00,,,0.03,Wunderground v.1.15,2013-01-24 02:35:00,
2013-01-23 18:40:00,47.1,42.2,30.19,NE,34,1.0,1.0,83,0.00,,,0.03,Wunderground v.1.15,2013-01-24 02:40:00,
2013-01-23 18:45:00,47.1,41.9,30.19,NE,34,1.0,1.0,82,0.00,,,0.03,Wunderground v.1.15,2013-01-24 02:45:00,
2013-01-23 18:55:00,46.7,41.8,30.18,NE,34,1.0,1.0,83,0.00,,,0.03,Wunderground v.1.15,2013-01-24 02:55:00,
2013-01-23 19:00:00,46.3,41.7,30.19,NE,34,0.0,2.0,84,0.00,,,0.03,Wunderground v.1.15,2013-01-24 03:00:00,
2013-01-23 19:10:00,46.5,41.6,30.18,North,5,1.0,3.0,83,0.00,,,0.03,Wunderground v.1.15,2013-01-24 03:10:00,
2013-01-23 19:20:00,46.0,41.4,30.18,NW,314,2.0,2.0,84,0.00,,,0.03,Wunderground v.1.15,2013-01-24 03:20:00,
2013-01-23 19:30:00,45.8,40.9,30.18,NNW,333,1.0,1.0,83,0.00,,,0.03,Wunderground v.1.15,2013-01-24 03:30:00,
2013-01-23 19:40:00,45.9,40.7,30.18,NW,305,2.0,2.0,82,0.00,,,0.03,Wunderground v.1.15,2013-01-24 03:40:00,
2013-01-23 19:45:00,45.8,40.6,30.18,NW,305,1.0,2.0,82,0.00,,,0.03,Wunderground v.1.15,2013-01-24 03:45:00,
2013-01-23 19:55:00,45.7,40.8,30.18,NW,306,1.0,3.0,83,0.00,,,0.03,Wunderground v.1.15,2013-01-24 03:55:00,
2013-01-23 20:00:00,45.9,40.4,30.18,NNW,331,1.0,4.0,81,0.00,,,0.03,Wunderground v.1.15,2013-01-24 04:00:00,
2013-01-23 20:10:00,46.5,39.7,30.19,NW,325,2.0,2.0,77,0.00,,,0.03,Wunderground v.1.15,2013-01-24 04:10:00,
2013-01-23 20:20:00,46.5,40.7,30.19,NNW,342,1.0,1.0,80,0.00,,,0.03,Wunderground v.1.15,2013-01-24 04:20:00,
2013-01-23 20:25:00,46.0,40.5,30.18,NNW,328,1.0,3.0,81,0.00,,,0.03,Wunderground v.1.15,2013-01-24 04:25:00,
2013-01-23 20:30:00,46.1,40.3,30.19,NNW,335,2.0,4.0,80,0.00,,,0.03,Wunderground v.1.15,2013-01-24 04:30:00,
2013-01-23 20:40:00,47.2,40.7,30.19,WNW,298,2.0,2.0,78,0.00,,,0.03,Wunderground v.1.15,2013-01-24 04:40:00,
2013-01-23 20:45:00,47.4,40.6,30.19,NE,35,1.0,2.0,77,0.00,,,0.03,Wunderground v.1.15,2013-01-24 04:45:00,
2013-01-23 20:55:00,47.7,40.5,30.18,NNE,14,1.0,1.0,76,0.00,,,0.03,Wunderground v.1.15,2013-01-24 04:55:00,
2013-01-23 21:00:00,47.9,41.0,30.18,NNE,14,1.0,1.0,77,0.00,,,0.03,Wunderground v.1.15,2013-01-24 05:00:00,
2013-01-23 21:05:00,47.8,40.9,30.18,NNE,24,1.0,1.0,77,0.00,,,0.03,Wunderground v.1.15,2013-01-24 05:05:00,
2013-01-23 21:10:00,47.9,40.7,30.18,NW,317,1.0,1.0,76,0.00,,,0.03,Wunderground v.1.15,2013-01-24 05:10:00,
2013-01-23 21:15:00,48.0,40.8,30.18,NNW,329,1.0,1.0,76,0.00,,,0.03,Wunderground v.1.15,2013-01-24 05:15:00,
2013-01-23 21:25:00,48.4,40.1,30.18,North,5,2.0,2.0,73,0.00,,,0.03,Wunderground v.1.15,2013-01-24 05:25:00,
2013-01-23 21:35:00,48.2,40.3,30.18,NNW,327,1.0,2.0,74,0.00,,,0.03,Wunderground v.1.15,2013-01-24 05:35:00,
2013-01-23 21:45:00,47.7,40.8,30.18,NNW,327,1.0,1.0,77,0.00,,,0.03,Wunderground v.1.15,2013-01-24 05:45:00,
2013-01-23 21:50:00,47.5,40.3,30.19,North,5,1.0,1.0,76,0.00,,,0.03,Wunderground v.1.15,2013-01-24 05:50:00,
2013-01-23 21:55:00,47.8,38.8,30.19,North,5,0.0,1.0,71,0.00,,,0.03,Wunderground v.1.15,2013-01-24 05:55:00,
2013-01-23 22:00:00,49.3,38.8,30.19,ENE,73,1.0,1.0,67,0.00,,,0.03,Wunderground v.1.15,2013-01-24 06:00:00,
2013-01-23 22:05:00,50.5,38.4,30.18,East,90,1.0,-999.0,63,0.00,,,0.03,Wunderground v.1.15,2013-01-24 06:05:00,
2013-01-23 22:10:00,50.9,38.7,30.18,East,86,1.0,1.0,63,0.00,,,0.03,Wunderground v.1.15,2013-01-24 06:10:00,
2013-01-23 22:15:00,51.1,38.9,30.18,East,90,1.0,-999.0,63,0.00,,,0.03,Wunderground v.1.15,2013-01-24 06:15:00,
2013-01-23 22:20:00,51.1,38.9,30.18,East,97,1.0,1.0,63,0.00,,,0.03,Wunderground v.1.15,2013-01-24 06:20:00,
2013-01-23 22:25:00,50.9,39.1,30.18,ESE,113,2.0,-999.0,64,0.00,,,0.03,Wunderground v.1.15,2013-01-24 06:25:00,
2013-01-23 22:30:00,50.9,39.5,30.18,ESE,113,2.0,3.0,65,0.00,,,0.03,Wunderground v.1.15,2013-01-24 06:30:00,
2013-01-23 22:35:00,50.8,40.2,30.18,SE,135,2.0,-999.0,67,0.00,,,0.03,Wunderground v.1.15,2013-01-24 06:35:00,
2013-01-23 22:40:00,50.6,40.4,30.18,East,101,2.0,3.0,68,0.00,,,0.03,Wunderground v.1.15,2013-01-24 06:40:00,
2013-01-23 22:45:00,50.6,40.0,30.18,SE,128,2.0,3.0,67,0.00,,,0.03,Wunderground v.1.15,2013-01-24 06:45:00,
2013-01-23 22:50:00,50.6,39.7,30.18,SE,135,2.0,-999.0,66,0.00,,,0.03,Wunderground v.1.15,2013-01-24 06:50:00,
2013-01-23 22:55:00,50.8,40.6,30.18,ESE,113,2.0,-999.0,68,0.00,,,0.03,Wunderground v.1.15,2013-01-24 06:55:00,
2013-01-23 23:00:00,50.8,40.6,30.18,ESE,113,2.0,-999.0,68,0.00,,,0.03,Wunderground v.1.15,2013-01-24 07:00:00,
2013-01-23 23:05:00,50.9,39.9,30.18,SE,135,3.0,-999.0,66,0.00,,,0.03,Wunderground v.1.15,2013-01-24 07:05:00,
2013-01-23 23:10:00,50.9,39.9,30.18,SE,135,3.0,-999.0,66,0.00,,,0.03,Wunderground v.1.15,2013-01-24 07:10:00,
2013-01-23 23:15:00,51.0,39.6,30.18,SE,135,3.0,-999.0,65,0.00,,,0.03,Wunderground v.1.15,2013-01-24 07:15:00,
2013-01-23 23:20:00,51.0,39.6,30.18,SE,135,3.0,-999.0,65,0.00,,,0.03,Wunderground v.1.15,2013-01-24 07:20:00,
2013-01-23 23:25:00,50.9,40.3,30.19,SE,135,2.0,-999.0,67,0.00,,,0.03,Wunderground v.1.15,2013-01-24 07:25:00,
2013-01-23 23:30:00,50.9,40.3,30.19,SE,135,2.0,-999.0,67,0.00,,,0.03,Wunderground v.1.15,2013-01-24 07:30:00,
2013-01-23 23:35:00,50.6,40.4,30.18,SE,135,2.0,-999.0,68,0.00,,,0.03,Wunderground v.1.15,2013-01-24 07:35:00,
2013-01-23 23:40:00,50.6,40.4,30.18,SE,135,2.0,-999.0,68,0.00,,,0.03,Wunderground v.1.15,2013-01-24 07:40:00,
2013-01-23 23:45:00,50.6,40.4,30.18,ESE,113,3.0,-999.0,68,0.00,,,0.03,Wunderground v.1.15,2013-01-24 07:45:00,
2013-01-23 23:50:00,50.6,40.4,30.18,ESE,113,3.0,-999.0,68,0.00,,,0.03,Wunderground v.1.15,2013-01-24 07:50:00,
2013-01-23 23:55:00,50.6,40.8,30.18,ESE,113,2.0,-999.0,69,0.00,,,0.03,Wunderground v.1.15,2013-01-24 07:55:00,